Tiempo atmosférico en la estación meteorológica de Jabaloyas, Teruel (1430 m.)



Fecha
DESCASC
Temp. máxima en grados centígrados (hora)
DESCASC
Temp. mínima en grados centígrados (hora)
DESCASC
Temp. media en grados centígrados
DESCASC
Racha de viento máxima en m/sg (hora)
DESCASC
Velocidad máxima media en intervalos de 10 minutos(hora)
DESCASC
Precipitaciones diarias en mm
DESCASC
Precipitaciones de 00:00 a 06:00 en mm
DESCASC
Precipitaciones de 06:00 a 12:00 en mm
DESCASC
Precipitaciones de 12:00 a 18:00 en mm
DESCASC
Precipitaciones de 18:00 a 24:00 en mm
DESCASC
15-08-2019 28.1 (16:40) 16.2 (07:30) 22.2 8.89 (12:30) 4.72 (11:40) 0 0 0 0 0
14-08-2019 26.5 (17:00) 11.7 (00:00) 19.1 8.33 (12:00) 5.28 (12:10) 0 0 0 0 0
13-08-2019 21.8 (17:10) 9.9 (00:00) 15.8 9.17 (14:30) 6.11 (14:00) 0.4 0 0 0.4 0
12-08-2019 21.9 (17:50) 11.4 (00:00) 16.6 11.11 (21:00) 6.11 (21:00) 0 0 0 0 0
11-08-2019 27.3 (16:50) 14.8 (00:00) 21 10.83 (17:10) 5.28 (04:40) 0 0 0 0 0
10-08-2019 28.8 (17:20) 18.2 (00:00) 23.5 13.33 (16:30) 6.11 (14:20) 0 0 0 0 0
09-08-2019 29.7 (16:00) 19.4 (00:00) 24.6 12.5 (15:40) 6.11 (17:10) 0 0 0 0 0
08-08-2019 29.2 (16:50) 15 (00:00) 22.1 10.28 (20:40) 5 (19:00) 0 0 0 0 0
07-08-2019 26.5 (16:20) 20.1 (00:00) 23.3 12.22 (09:50) 6.94 (09:30) 0 0 0 0 0
06-08-2019 30.5 (15:20) 19.8 (00:00) 25.1 12.78 (12:00) 6.67 (06:00) 0 0 0 0 0
05-08-2019 31.1 (16:10) 19.1 (00:00) 25.1 11.11 (16:20) 6.67 (04:40) 0 0 0 0 0
04-08-2019 30.2 (16:50) 18 (00:00) 24.1 11.67 (15:30) 5.83 (14:00) 0 0 0 0 0
03-08-2019 30.1 (17:40) 18.1 (00:00) 24.1 10.28 (14:40) 5.83 (12:50) 0 0 0 0 0
02-08-2019 30.2 (18:30) 16.2 (00:00) 23.2 11.39 (17:40) 6.11 (12:50) 0 0 0 0 0
01-08-2019 28.8 (17:00) 14.3 (00:00) 21.5 11.39 (05:50) 7.22 (07:50) 0 0 0 0 0
31-07-2019 22.9 (15:10) 12.9 (00:00) 17.9 13.61 (15:20) 8.06 (14:00) 0 0 0 0 0
30-07-2019 27.8 (17:30) 14.6 (00:00) 21.2 11.67 (18:30) 5.28 (21:00) 0 0 0 0 0
29-07-2019 27.4 (16:00) 13.5 (00:00) 20.4 11.39 (12:30) 5.28 (11:50) 0 0 0 0 0
28-07-2019 24.9 (18:10) 7.9 (00:00) 16.4 8.61 (09:00) 6.39 (01:00) 0 0 0 0 0
27-07-2019 22.2 (16:30) 12.5 (00:00) 17.4 15.28 (16:40) 9.17 (19:50) 0 0 0 0 0
26-07-2019 26.8 (14:40) 17.2 (00:00) 22 11.39 (19:40) 6.11 (00:50) 0 0 0 0 0
25-07-2019 30.6 (17:00) 19.8 (00:00) 25.2 12.5 (18:50) 7.5 (18:50) 0 0 0 0 0
24-07-2019 30.2 (16:30) 19.7 (00:00) 25 12.5 (15:30) 7.78 (15:30) 0 0 0 0 0
23-07-2019 30.1 (16:00) 20 (00:00) 25.1 12.78 (17:50) 7.78 (14:40) 0 0 0 0 0
22-07-2019 28.6 (15:00) 19.4 (00:00) 24 15 (17:00) 8.33 (14:40) 0 0 0 0 0
21-07-2019 27.8 (15:10) 17.7 (00:00) 22.8 12.5 (12:30) 7.5 (12:20) 0 0 0 0 0
20-07-2019 30.8 (16:20) 16.9 (00:00) 23.8 11.67 (17:10) 7.78 (17:40) 0 0 0 0 0
19-07-2019 29.1 (15:50) 16.3 (00:00) 22.7 11.67 (19:20) 7.5 (19:20) 0 0 0 0 0

Gráficas

Temp. máximas Temp. mínimas Temp. medias Precipitaciones Rachas de viento máximas Velocidades máximas media en intervalos de 10 minutos

Datos horarios

Fecha y hora oficial Temperatura (ºC) Velocidad del viento (km/h) Dirección del viento Racha (km/h) Dirección de racha Precipitación (mm) Presión (hPa) Tendencia (hPa) Humedad (%)
2019-08-17 23:00:00 21.5 17 Sur 23 Sur 0 -- -- 57
2019-08-17 22:00:00 26.3 10 Sur 22 Sur 0 -- -- 25
2019-08-17 21:00:00 26.8 6 Sur 14 Oeste 0 -- -- 26
2019-08-17 20:00:00 29 6 Sudoeste 25 Sudoeste 0 -- -- 24
2019-08-17 19:00:00 30.3 8 Sudoeste 28 Oeste 0 -- -- 22
2019-08-17 18:00:00 30.9 11 Sudoeste 31 Oeste 0 -- -- 22
2019-08-17 17:00:00 30.6 14 Sudoeste 32 Sudoeste 0 -- -- 22
2019-08-17 16:00:00 31 9 Sur 35 Sur 0 -- -- 22
2019-08-17 15:00:00 30 12 Sudoeste 37 Oeste 0 -- -- 22
2019-08-17 14:00:00 29.4 14 Sur 33 Sudoeste 0 -- -- 25
2019-08-17 13:00:00 28.5 13 Sudoeste 43 Sudoeste 0 -- -- 28
2019-08-17 12:00:00 27.8 13 Sudoeste 31 Sudoeste 0 -- -- 31
2019-08-17 11:00:00 26.6 12 Sudoeste 37 Oeste 0 -- -- 32
2019-08-17 10:00:00 26 6 Sudoeste 19 Sudoeste 0 -- -- 33
2019-08-17 09:00:00 24.2 10 Sudoeste 15 Sudoeste 0 -- -- 36
2019-08-17 08:00:00 22.4 6 Sudoeste 13 Sudoeste 0 -- -- 38
2019-08-17 07:00:00 21.7 9 Sudoeste 18 Sudoeste 0 -- -- 39
2019-08-17 06:00:00 21.5 6 Sudoeste 17 Sudoeste 0 -- -- 39
2019-08-17 05:00:00 21.4 8 Sudoeste 26 Sudoeste 0 -- -- 44
2019-08-17 04:00:00 21.6 14 Sudoeste 34 Sudoeste 0 -- -- 54
2019-08-17 03:00:00 21 25 Sudoeste 36 Sudoeste 0 -- -- 60
2019-08-17 02:00:00 21.2 24 Sudoeste 35 Sudoeste 0 -- -- 60
2019-08-17 01:00:00 21.3 19 Sudoeste 33 Sudoeste 0 -- -- 61
2019-08-17 00:00:00 20.7 12 Sur 27 Sudoeste 0 -- -- 63
2019-08-16 23:00:00 20 12 Sudeste 20 Sudeste 0 -- -- 74
2019-08-16 22:00:00 24.8 12 Oeste 18 Oeste 0 -- -- 31
2019-08-16 21:00:00 26.3 10 Oeste 27 Oeste 0 -- -- 29
2019-08-16 20:00:00 28.2 12 Oeste 29 Oeste 0 -- -- 28
2019-08-16 19:00:00 28.5 15 Oeste 28 Noroeste 0 -- -- 28
2019-08-16 18:00:00 28.7 19 Oeste 41 Sur 0 -- -- 28
2019-08-16 17:00:00 29 13 Sur 35 Sudeste 0 -- -- 30
2019-08-16 16:00:00 29 14 Sudoeste 38 Sudoeste 0 -- -- 29
2019-08-16 15:00:00 28.4 12 Sur 29 Sudoeste 0 -- -- 30
2019-08-16 14:00:00 27.1 12 Sur 33 Este 0 -- -- 34
2019-08-16 13:00:00 26.3 16 Sudeste 31 Sudeste 0 -- -- 41
2019-08-16 12:00:00 24 18 Sudeste 28 Sudeste 0 -- -- 49
2019-08-16 11:00:00 22.2 20 Sudeste 28 Sudeste 0 -- -- 52
2019-08-16 10:00:00 20.8 18 Sudeste 30 Sudeste 0 -- -- 58
2019-08-16 09:00:00 19.8 23 Sur 36 Sur 0 -- -- 54
2019-08-16 08:00:00 18.2 23 Sur 36 Sudoeste 0 -- -- 61
2019-08-16 07:00:00 17.7 19 Sur 29 Sur 0 -- -- 64
2019-08-16 06:00:00 17.2 17 Sur 27 Sur 0 -- -- 69
2019-08-16 05:00:00 15.3 3 Oeste 6 Sudeste 0 -- -- 90
2019-08-16 04:00:00 16 5 Sudeste 8 Sudeste 0 -- -- 91
2019-08-16 03:00:00 16.2 4 Oeste 8 Oeste 0 -- -- 90
2019-08-16 02:00:00 16.6 4 Oeste 10 Noroeste 0 -- -- 90
2019-08-16 01:00:00 17.5 2 Oeste 10 Sudoeste 0 -- -- 88
2019-08-16 00:00:00 18.1 4 Noroeste 15 Sudeste 0 -- -- 84
2019-08-15 23:00:00 19.3 12 Sur 19 Sur 0 -- -- 82
2019-08-15 22:00:00 19.7 9 Sudeste 21 Este 0 -- -- 77
2019-08-15 21:00:00 22 17 Este 30 Este 0 -- -- 70
2019-08-15 20:00:00 24.2 11 Sudeste 18 Este 0 -- -- 59
2019-08-15 19:00:00 26.9 7 Nordeste 19 Nordeste 0 -- -- 31
2019-08-15 18:00:00 27.2 3 Sudeste 22 Noroeste 0 -- -- 29
2019-08-15 17:00:00 27.2 9 Nordeste 18 Nordeste 0 -- -- 29
2019-08-15 16:00:00 26.9 11 Nordeste 20 Este 0 -- -- 30
2019-08-15 15:00:00 26.4 14 Este 28 Nordeste 0 -- -- 31
2019-08-15 14:00:00 26.3 8 Sudeste 22 Este 0 -- -- 32
2019-08-15 13:00:00 25.7 10 Este 32 Este 0 -- -- 35
2019-08-15 12:00:00 24.7 14 Sudeste 25 Este 0 -- -- 40
2019-08-15 11:00:00 23.2 14 Este 21 Este 0 -- -- 45
2019-08-15 10:00:00 22 12 Sudeste 18 Sudeste 0 -- -- 47
2019-08-15 09:00:00 20 9 Sudeste 15 Este 0 -- -- 53
2019-08-15 08:00:00 17.1 0 Calma 5 Sudoeste 0 -- -- 61
2019-08-15 07:00:00 16.9 0 Calma 17 Sur 0 -- -- 61
2019-08-15 06:00:00 17.6 12 Sur 19 Sur 0 -- -- 55
2019-08-15 05:00:00 17.6 12 Sur 18 Sur 0 -- -- 58
2019-08-15 04:00:00 16.4 5 Sur 10 Sur 0 -- -- 69
2019-08-15 03:00:00 17 5 Oeste 12 Oeste 0 -- -- 53
2019-08-15 02:00:00 17.6 7 Oeste 13 Oeste 0 -- -- 55
2019-08-15 01:00:00 18.4 7 Oeste 13 Oeste 0 -- -- 40
2019-08-15 00:00:00 19.4 5 Sudeste 10 Sudeste 0 -- -- 38
2019-08-14 23:00:00 20.3 5 Sur 11 Sur 0 -- -- 34
2019-08-14 22:00:00 21.4 4 Oeste 10 Oeste 0 -- -- 32
2019-08-14 21:00:00 23.2 4 Noroeste 15 Norte 0 -- -- 29
2019-08-14 20:00:00 25.3 8 Norte 22 Nordeste 0 -- -- 26
2019-08-14 19:00:00 26.1 11 Nordeste 21 Norte 0 -- -- 25
2019-08-14 18:00:00 26.3 12 Nordeste 25 Nordeste 0 -- -- 26
2019-08-14 17:00:00 26.5 10 Nordeste 29 Este 0 -- -- 26
2019-08-14 16:00:00 26.1 10 Norte 23 Este 0 -- -- 28
2019-08-14 15:00:00 25.9 9 Nordeste 24 Este 0 -- -- 29
2019-08-14 14:00:00 25.3 13 Noroeste 25 Noroeste 0 -- -- 27
2019-08-14 13:00:00 24.2 10 Noroeste 28 Noroeste 0 -- -- 28
2019-08-14 12:00:00 22.8 17 Noroeste 30 Noroeste 0 -- -- 31
2019-08-14 11:00:00 21 11 Oeste 21 Noroeste 0 -- -- 39
2019-08-14 10:00:00 18.3 8 Este 13 Este 0 -- -- 68
2019-08-14 09:00:00 15.6 0 Calma 4 Este 0 -- -- 83
2019-08-14 08:00:00 13 2 Noroeste 6 Noroeste 0 -- -- 92
2019-08-14 07:00:00 11.7 5 Oeste 9 Sudeste 0 -- -- 94
2019-08-14 06:00:00 12.7 6 Sudeste 8 Sur 0 -- -- 93
2019-08-14 05:00:00 12.9 0 Calma 17 Oeste 0 -- -- 89
2019-08-14 04:00:00 13.4 2 Sudeste 7 Sudeste 0 -- -- 89
2019-08-14 03:00:00 13.7 3 Sur 6 Sur 0 -- -- 93
2019-08-14 02:00:00 13.3 0 Calma 9 Sur 0 -- -- 89
2019-08-14 01:00:00 14.3 4 Sur 12 Sudeste 0 -- -- 89
2019-08-14 00:00:00 14.6 4 Sur 7 Sudeste 0 -- -- 77
2019-08-13 23:00:00 15.7 3 Oeste 11 Noroeste 0 -- -- 51
2019-08-13 22:00:00 17.4 8 Oeste 12 Oeste 0 -- -- 42
2019-08-13 21:00:00 19 7 Norte 14 Noroeste 0 -- -- 42
2019-08-13 20:00:00 20.5 8 Norte 15 Norte 0 -- -- 44
2019-08-13 19:00:00 19.4 4 Este 15 Sudeste 0 -- -- 60
2019-08-13 18:00:00 20.3 6 Nordeste 19 Norte 0 -- -- 60
2019-08-13 17:00:00 21.1 9 Sudoeste 19 Oeste 0.4 -- -- 52
2019-08-13 16:00:00 19.7 4 Sur 24 Oeste 0 -- -- 57
2019-08-13 15:00:00 21.4 13 Sudoeste 33 Sudeste 0 -- -- 46
2019-08-13 14:00:00 19.4 22 Sudeste 33 Sudeste 0 -- -- 57
2019-08-13 13:00:00 18.4 14 Sudeste 31 Este 0 -- -- 60
2019-08-13 12:00:00 16.1 13 Sudeste 22 Sudeste 0 -- -- 65
2019-08-13 11:00:00 14.8 7 Sudeste 14 Sudeste 0 -- -- 63
2019-08-13 10:00:00 12.6 4 Norte 7 Nordeste 0 -- -- 59
2019-08-13 09:00:00 11.3 3 Noroeste 8 Noroeste 0 -- -- 62
2019-08-13 08:00:00 10.6 5 Noroeste 12 Noroeste 0 -- -- 67
2019-08-13 07:00:00 10.5 10 Oeste 17 Noroeste 0 -- -- 65
2019-08-13 06:00:00 10.5 10 Oeste 20 Oeste 0 -- -- 66
2019-08-13 05:00:00 10.2 9 Oeste 18 Oeste 0 -- -- 69
2019-08-13 04:00:00 10 10 Noroeste 18 Noroeste 0 -- -- 71
2019-08-13 03:00:00 10.1 14 Oeste 21 Oeste 0 -- -- 71
2019-08-13 02:00:00 10.7 11 Oeste 21 Oeste 0 -- -- 68
2019-08-13 01:00:00 10.9 14 Oeste 23 Noroeste 0 -- -- 66
2019-08-13 00:00:00 11.7 17 Noroeste 27 Noroeste 0 -- -- 63
2019-08-12 23:00:00 12.9 18 Noroeste 29 Noroeste 0 -- -- 58
2019-08-12 22:00:00 14.4 17 Noroeste 29 Norte 0 -- -- 50
2019-08-12 21:00:00 16 22 Norte 40 Noroeste 0 -- -- 46
2019-08-12 20:00:00 20 15 Norte 27 Norte 0 -- -- 35
2019-08-12 19:00:00 21.4 12 Norte 21 Nordeste 0 -- -- 32
2019-08-12 18:00:00 21.8 12 Norte 26 Nordeste 0 -- -- 33
2019-08-12 17:00:00 21 7 Norte 22 Este 0 -- -- 36
2019-08-12 16:00:00 21.5 10 Norte 19 Norte 0 -- -- 36
2019-08-12 15:00:00 19.9 10 Nordeste 23 Nordeste 0 -- -- 40
2019-08-12 14:00:00 19.1 10 Norte 26 Norte 0 -- -- 43
2019-08-12 13:00:00 17.8 14 Norte 24 Norte 0 -- -- 49
2019-08-12 12:00:00 17.1 15 Nordeste 27 Nordeste 0 -- -- 47
2019-08-12 11:00:00 15.9 14 Norte 24 Nordeste 0 -- -- 57
2019-08-12 10:00:00 14.2 12 Norte 27 Noroeste 0 -- -- 68
2019-08-12 09:00:00 12.4 21 Noroeste 35 Noroeste 0 -- -- 75
2019-08-12 08:00:00 11.6 18 Noroeste 24 Noroeste 0 -- -- 81
2019-08-12 07:00:00 11.9 14 Oeste 21 Oeste 0 -- -- 79
2019-08-12 06:00:00 12.3 12 Oeste 18 Oeste 0 -- -- 77
2019-08-12 05:00:00 13 14 Oeste 21 Oeste 0 -- -- 72
2019-08-12 04:00:00 13.5 0 Calma 8 Oeste 0 -- -- 61
2019-08-12 03:00:00 14.7 3 Noroeste 9 Oeste 0 -- -- 54
2019-08-12 02:00:00 17.1 5 Noroeste 23 Oeste 0 -- -- 38
2019-08-12 01:00:00 18.5 14 Oeste 24 Oeste 0 -- -- 29
2019-08-12 00:00:00 19.7 13 Oeste 25 Oeste 0 -- -- 32
2019-08-11 23:00:00 20.2 17 Oeste 24 Oeste 0 -- -- 31
2019-08-11 22:00:00 20.9 12 Oeste 17 Oeste 0 -- -- 30
2019-08-11 21:00:00 22.4 5 Sudoeste 18 Sudoeste 0 -- -- 27
2019-08-11 20:00:00 23.9 9 Sudoeste 28 Sur 0 -- -- 27
2019-08-11 19:00:00 24.3 10 Sudoeste 32 Oeste 0 -- -- 25
2019-08-11 18:00:00 26.6 14 Sudoeste 39 Sudoeste 0 -- -- 21
2019-08-11 17:00:00 26.2 17 Oeste 35 Oeste 0 -- -- 22
2019-08-11 16:00:00 26.6 10 Sudoeste 35 Sur 0 -- -- 24
2019-08-11 15:00:00 25.9 7 Sudoeste 32 Sudoeste 0 -- -- 27
2019-08-11 14:00:00 25.2 14 Sudoeste 32 Sur 0 -- -- 29
2019-08-11 13:00:00 24.3 17 Sudoeste 35 Sudoeste 0 -- -- 31
2019-08-11 12:00:00 23.2 11 Sudoeste 33 Sudoeste 0 -- -- 42
2019-08-11 11:00:00 22.2 14 Sudeste 27 Sudeste 0 -- -- 52
2019-08-11 10:00:00 20.1 10 Sudeste 23 Sudoeste 0 -- -- 67
2019-08-11 09:00:00 19 8 Sudoeste 24 Sur 0 -- -- 69
2019-08-11 08:00:00 17.6 11 Sur 29 Sur 0 -- -- 76
2019-08-11 07:00:00 14.9 10 Sudeste 19 Sudeste 0 -- -- 91
2019-08-11 06:00:00 16.2 13 Sudeste 24 Sudeste 0 -- -- 83
2019-08-11 05:00:00 17 16 Sudeste 28 Sudeste 0 -- -- 77
2019-08-11 04:00:00 16.9 12 Sudeste 22 Sur 0 -- -- 78
2019-08-11 03:00:00 17.2 13 Sudeste 20 Sudeste 0 -- -- 77
2019-08-11 02:00:00 17.6 14 Sur 23 Sudeste 0 -- -- 76
2019-08-11 01:00:00 17.9 13 Sudeste 19 Sudeste 0 -- -- 85
2019-08-11 00:00:00 18.9 13 Sudeste 18 Sudeste 0 -- -- 84
2019-08-10 23:00:00 20.3 12 Sur 16 Sur 0 -- -- 68
2019-08-10 22:00:00 22.5 10 Sudeste 15 Sudeste 0 -- -- 51
2019-08-10 21:00:00 25 5 Sudoeste 29 Sur 0 -- -- 37
2019-08-10 20:00:00 26.3 12 Sur 33 Sur 0 -- -- 34
2019-08-10 19:00:00 27.5 14 Sur 35 Sur 0 -- -- 32
2019-08-10 18:00:00 28.2 14 Sur 37 Oeste 0 -- -- 31
2019-08-10 17:00:00 28.5 16 Sur 48 Sur 0 -- -- 28
2019-08-10 16:00:00 28.3 22 Sur 41 Sudeste 0 -- -- 32
2019-08-10 15:00:00 27.6 18 Sur 40 Sudeste 0 -- -- 35
2019-08-10 14:00:00 27.5 18 Sur 34 Sur 0 -- -- 37
2019-08-10 13:00:00 27.2 12 Sur 28 Sur 0 -- -- 37
2019-08-10 12:00:00 24.9 10 Oeste 24 Sudoeste 0 -- -- 47
2019-08-10 11:00:00 23.4 13 Sudoeste 32 Oeste 0 -- -- 52
2019-08-10 10:00:00 21.5 12 Oeste 27 Sudoeste 0 -- -- 63
2019-08-10 09:00:00 20.6 5 Sudeste 11 Norte 0 -- -- 64
2019-08-10 08:00:00 18.7 4 Norte 31 Noroeste 0 -- -- 69
2019-08-10 07:00:00 18.9 14 Oeste 33 Oeste 0 -- -- 68
2019-08-10 06:00:00 19.1 13 Oeste 35 Oeste 0 -- -- 67
2019-08-10 05:00:00 19.5 11 Oeste 25 Oeste 0 -- -- 63
2019-08-10 04:00:00 19.6 5 Oeste 17 Oeste 0 -- -- 61
2019-08-10 03:00:00 19 9 Oeste 15 Oeste 0 -- -- 69
2019-08-10 02:00:00 19.6 8 Oeste 14 Oeste 0 -- -- 68
2019-08-10 01:00:00 20.3 11 Oeste 17 Oeste 0 -- -- 63
2019-08-10 00:00:00 21.3 9 Noroeste 18 Oeste 0 -- -- 53
2019-08-09 23:00:00 22.5 3 Oeste 19 Oeste 0 -- -- 48
2019-08-09 22:00:00 24 8 Oeste 19 Sudoeste 0 -- -- 44
2019-08-09 21:00:00 25.4 9 Sudoeste 28 Sudoeste 0 -- -- 39
2019-08-09 20:00:00 27.1 12 Sudoeste 37 Sudoeste 0 -- -- 37
2019-08-09 19:00:00 28.4 8 Oeste 33 Sudoeste 0 -- -- 32
2019-08-09 18:00:00 28.5 20 Oeste 41 Oeste 0 -- -- 32
2019-08-09 17:00:00 29.1 18 Oeste 35 Oeste 0 -- -- 32
2019-08-09 16:00:00 29.7 14 Oeste 45 Oeste 0 -- -- 29
2019-08-09 15:00:00 28.5 17 Oeste 35 Sudoeste 0 -- -- 31
2019-08-09 14:00:00 27.8 15 Sudoeste 30 Sudoeste 0 -- -- 32
2019-08-09 13:00:00 26.7 13 Oeste 36 Sudoeste 0 -- -- 34
2019-08-09 12:00:00 25.8 18 Oeste 38 Sudoeste 0 -- -- 37
2019-08-09 11:00:00 24.5 14 Oeste 39 Oeste 0 -- -- 41
2019-08-09 10:00:00 22.5 18 Oeste 36 Oeste 0 -- -- 49
2019-08-09 09:00:00 22 14 Sudoeste 28 Sudoeste 0 -- -- 47
2019-08-09 08:00:00 20.4 4 Sur 13 Sudoeste 0 -- -- 50
2019-08-09 07:00:00 19.9 7 Sudoeste 17 Sudoeste 0 -- -- 50
2019-08-09 06:00:00 19.7 3 Sudoeste 10 Sudoeste 0 -- -- 52
2019-08-09 05:00:00 20 5 Sudoeste 14 Sudoeste 0 -- -- 51
2019-08-09 04:00:00 21.1 12 Sudoeste 15 Sudoeste 0 -- -- 47
2019-08-09 03:00:00 21.1 5 Sudoeste 14 Sur 0 -- -- 46
2019-08-09 02:00:00 21.7 5 Sur 13 Sur 0 -- -- 44
2019-08-09 01:00:00 22.1 4 Sur 18 Sur 0 -- -- 44
2019-08-09 00:00:00 23.2 8 Oeste 17 Sur 0 -- -- 41
2019-08-08 23:00:00 23.2 5 Sudoeste 17 Oeste 0 -- -- 42
2019-08-08 22:00:00 24.1 7 Oeste 22 Oeste 0 -- -- 40
2019-08-08 21:00:00 25.5 8 Sudoeste 37 Sudoeste 0 -- -- 38
2019-08-08 20:00:00 27.5 9 Sudoeste 32 Oeste 0 -- -- 35
2019-08-08 19:00:00 28.3 18 Sudoeste 31 Sudoeste 0 -- -- 32
2019-08-08 18:00:00 28.8 13 Sudoeste 31 Oeste 0 -- -- 32
2019-08-08 17:00:00 29.1 17 Oeste 36 Sudoeste 0 -- -- 32
2019-08-08 16:00:00 28.8 12 Sudoeste 35 Sudoeste 0 -- -- 34
2019-08-08 15:00:00 28.7 11 Oeste 27 Oeste 0 -- -- 33
2019-08-08 14:00:00 27.7 16 Oeste 31 Oeste 0 -- -- 35
2019-08-08 13:00:00 25.8 15 Oeste 31 Oeste 0 -- -- 38
2019-08-08 12:00:00 25 10 Oeste 23 Oeste 0 -- -- 39
2019-08-08 11:00:00 22.8 8 Oeste 23 Oeste 0 -- -- 40
2019-08-08 10:00:00 20.7 10 Noroeste 17 Noroeste 0 -- -- 44
2019-08-08 09:00:00 18.6 6 Noroeste 14 Oeste 0 -- -- 54
2019-08-08 08:00:00 16.4 8 Noroeste 19 Oeste 0 -- -- 63
2019-08-08 07:00:00 15.2 12 Oeste 17 Oeste 0 -- -- 66
2019-08-08 06:00:00 15.7 6 Oeste 9 Noroeste 0 -- -- 61
2019-08-08 05:00:00 16.4 0 Calma 9 Oeste 0 -- -- 57
2019-08-08 04:00:00 17.6 5 Norte 29 Oeste 0 -- -- 53
2019-08-08 03:00:00 18.2 10 Oeste 26 Noroeste 0 -- -- 50
2019-08-08 02:00:00 18.7 17 Oeste 31 Oeste 0 -- -- 49
2019-08-08 01:00:00 19.2 13 Oeste 24 Oeste 0 -- -- 50
2019-08-08 00:00:00 20.1 6 Oeste 20 Oeste 0 -- -- 42
2019-08-07 23:00:00 21.4 8 Sudoeste 24 Sudoeste 0 -- -- 38
2019-08-07 22:00:00 21.9 4 Oeste 19 Oeste 0 -- -- 37
2019-08-07 21:00:00 22.6 14 Oeste 37 Sudoeste 0 -- -- 35
2019-08-07 20:00:00 24 8 Sudoeste 32 Sudoeste 0 -- -- 30
2019-08-07 19:00:00 25.1 10 Noroeste 29 Oeste 0 -- -- 31
2019-08-07 18:00:00 25.7 12 Oeste 26 Oeste 0 -- -- 26
2019-08-07 17:00:00 26.1 13 Oeste 30 Oeste 0 -- -- 26
2019-08-07 16:00:00 25.8 9 Oeste 27 Sudoeste 0 -- -- 29
2019-08-07 15:00:00 25.6 17 Noroeste 28 Oeste 0 -- -- 27
2019-08-07 14:00:00 24.7 11 Oeste 24 Oeste 0 -- -- 27
2019-08-07 13:00:00 23.6 4 Oeste 18 Oeste 0 -- -- 30
2019-08-07 12:00:00 21.9 5 Oeste 30 Oeste 0 -- -- 37
2019-08-07 11:00:00 21.1 14 Oeste 37 Sudoeste 0 -- -- 42
2019-08-07 10:00:00 20.8 15 Oeste 44 Oeste 0 -- -- 43
2019-08-07 09:00:00 20.8 17 Oeste 41 Oeste 0 -- -- 39
2019-08-07 08:00:00 21.1 15 Oeste 35 Oeste 0 -- -- 35
2019-08-07 07:00:00 21 14 Oeste 34 Oeste 0 -- -- 35
2019-08-07 06:00:00 21.2 12 Oeste 28 Noroeste 0 -- -- 35
2019-08-07 05:00:00 21.7 13 Oeste 26 Oeste 0 -- -- 33
2019-08-07 04:00:00 22.1 10 Oeste 26 Sudoeste 0 -- -- 27
2019-08-07 03:00:00 21.8 9 Oeste 27 Oeste 0 -- -- 29
2019-08-07 02:00:00 22.8 18 Oeste 31 Oeste 0 -- -- 25
2019-08-07 01:00:00 23.1 13 Oeste 22 Sudoeste 0 -- -- 20
2019-08-07 00:00:00 22.9 8 Sudoeste 17 Sudoeste 0 -- -- 19
2019-08-06 23:00:00 23.9 5 Sudoeste 22 Sur 0 -- -- 17
2019-08-06 22:00:00 24.8 9 Oeste 24 Sudoeste 0 -- -- 16
2019-08-06 21:00:00 26.4 10 Sudoeste 20 Sur 0 -- -- 16
2019-08-06 20:00:00 28.1 9 Sur 31 Sudoeste 0 -- -- 15
2019-08-06 19:00:00 29.6 13 Sur 31 Sur 0 -- -- 17
2019-08-06 18:00:00 30.5 13 Sudoeste 32 Oeste 0 -- -- 15
2019-08-06 17:00:00 30 17 Oeste 35 Sudoeste 0 -- -- 15
2019-08-06 16:00:00 30.3 14 Oeste 30 Sudoeste 0 -- -- 16
2019-08-06 15:00:00 30 12 Oeste 32 Oeste 0 -- -- 19
2019-08-06 14:00:00 29.9 10 Sur 34 Sur 0 -- -- 21
2019-08-06 13:00:00 28.2 12 Noroeste 35 Oeste 0 -- -- 23
2019-08-06 12:00:00 27.2 21 Oeste 46 Oeste 0 -- -- 22
2019-08-06 11:00:00 26.7 14 Oeste 30 Oeste 0 -- -- 25
2019-08-06 10:00:00 25.1 14 Noroeste 27 Oeste 0 -- -- 27
2019-08-06 09:00:00 24.3 15 Oeste 29 Noroeste 0 -- -- 25
2019-08-06 08:00:00 23.4 19 Oeste 31 Oeste 0 -- -- 29
2019-08-06 07:00:00 22.9 23 Oeste 42 Oeste 0 -- -- 31
2019-08-06 06:00:00 22.1 24 Oeste 35 Oeste 0 -- -- 38
2019-08-06 05:00:00 20.2 16 Sudoeste 32 Sudoeste 0 -- -- 73
2019-08-06 04:00:00 20.5 20 Sudoeste 31 Sudoeste 0 -- -- 76
2019-08-06 03:00:00 20.4 12 Sur 20 Sur 0 -- -- 77
2019-08-06 02:00:00 21.4 9 Sur 23 Sudoeste 0 -- -- 72
2019-08-06 01:00:00 21.7 8 Sur 19 Sur 0 -- -- 70
2019-08-06 00:00:00 22.3 8 Sur 18 Sur 0 -- -- 58
2019-08-05 23:00:00 22.2 10 Sur 17 Sur 0 -- -- 36
2019-08-05 22:00:00 24.4 6 Sur 13 Sudoeste 0 -- -- 28
2019-08-05 21:00:00 27.1 4 Sudoeste 23 Sur 0 -- -- 21
2019-08-05 20:00:00 29.1 11 Sur 22 Sur 0 -- -- 20
2019-08-05 19:00:00 30.1 12 Sur 30 Sudeste 0 -- -- 19
2019-08-05 18:00:00 30.9 10 Sudoeste 28 Sudoeste 0 -- -- 17
2019-08-05 17:00:00 30.9 10 Sudoeste 40 Sur 0 -- -- 16
2019-08-05 16:00:00 30.8 10 Sur 35 Sur 0 -- -- 31
2019-08-05 15:00:00 30.3 14 Sur 37 Sur 0 -- -- 22
2019-08-05 14:00:00 29.6 12 Sur 31 Sudeste 0 -- -- 24
2019-08-05 13:00:00 29.3 18 Sur 40 Sudeste 0 -- -- 25
2019-08-05 12:00:00 -- 10 Sur 32 Sur 0 -- -- --
2019-08-05 11:00:00 27.3 10 Sudoeste 26 Oeste 0 -- -- 26
2019-08-05 10:00:00 26.4 4 Este 16 Oeste 0 -- -- 36
2019-08-05 09:00:00 24.6 5 Oeste 18 Sur 0 -- -- 35
2019-08-05 08:00:00 22.1 5 Sudoeste 12 Sudoeste 0 -- -- 40
2019-08-05 07:00:00 20 4 Sudeste 17 Sudoeste 0 -- -- 58
2019-08-05 06:00:00 20.3 8 Sur 27 Sudoeste 0 -- -- 63
2019-08-05 05:00:00 20.9 10 Sudoeste 31 Sudoeste 0 -- -- 63
2019-08-05 04:00:00 20.6 19 Sudoeste 31 Sudoeste 0 -- -- 66
2019-08-05 03:00:00 20.8 10 Sudoeste 22 Sudoeste 0 -- -- 65
2019-08-05 02:00:00 20.6 13 Sur 20 Sudoeste 0 -- -- 64
2019-08-05 01:00:00 20.9 10 Sur 23 Sur 0 -- -- 55
2019-08-05 00:00:00 22 13 Sur 21 Sur 0 -- -- 44
2019-08-04 23:00:00 22.1 14 Sur 22 Sur 0 -- -- 38
2019-08-04 22:00:00 24.7 6 Sudoeste 14 Sur 0 -- -- 27
2019-08-04 21:00:00 26.7 5 Sur 22 Oeste 0 -- -- 24
2019-08-04 20:00:00 28.7 14 Sudoeste 28 Sudoeste 0 -- -- 23
2019-08-04 19:00:00 29.6 13 Sudoeste 27 Sur 0 -- -- 22
2019-08-04 18:00:00 29.8 12 Sudoeste 33 Sur 0 -- -- 24
2019-08-04 17:00:00 30.2 8 Sur 32 Sur 0 -- -- 22
2019-08-04 16:00:00 29.5 11 Sur 42 Sudeste 0 -- -- 26
2019-08-04 15:00:00 29.8 14 Sur 36 Sur 0 -- -- 27
2019-08-04 14:00:00 29.6 21 Sudeste 40 Sur 0 -- -- 28
2019-08-04 13:00:00 29.1 11 Sudoeste 34 Sudeste 0 -- -- 27
2019-08-04 12:00:00 28.4 9 Sudoeste 25 Oeste 0 -- -- 27
2019-08-04 11:00:00 26.9 10 Oeste 22 Oeste 0 -- -- 25
2019-08-04 10:00:00 25.5 15 Oeste 23 Oeste 0 -- -- 27
2019-08-04 09:00:00 21.4 7 Sudeste 13 Sudeste 0 -- -- 62
2019-08-04 08:00:00 19.3 4 Sudeste 10 Sudoeste 0 -- -- 68
2019-08-04 07:00:00 18.4 6 Oeste 22 Sudoeste 0 -- -- 71
2019-08-04 06:00:00 19.4 10 Sudoeste 19 Sudoeste 0 -- -- 64
2019-08-04 05:00:00 18.6 10 Sur 17 Sur 0 -- -- 78
2019-08-04 04:00:00 18.7 11 Sur 22 Sur 0 -- -- 78
2019-08-04 03:00:00 18.3 15 Sur 26 Sur 0 -- -- 73
2019-08-04 02:00:00 18.4 17 Sur 24 Sur 0 -- -- 75
2019-08-04 01:00:00 19.3 13 Sur 21 Sur 0 -- -- 71
2019-08-04 00:00:00 20.9 12 Sur 21 Sur 0 -- -- 64
2019-08-03 23:00:00 21.4 12 Sur 16 Sur 0 -- -- 58
2019-08-03 22:00:00 22.1 11 Sudeste 16 Sudeste 0 -- -- 57
2019-08-03 21:00:00 24.1 12 Sudeste 23 Sudeste 0 -- -- 54
2019-08-03 20:00:00 28.1 10 Sur 26 Sur 0 -- -- 25
2019-08-03 19:00:00 29.3 12 Sudoeste 31 Sur 0 -- -- 23
2019-08-03 18:00:00 30 15 Sur 35 Sur 0 -- -- 22
2019-08-03 17:00:00 29.7 12 Sudoeste 37 Sur 0 -- -- 25
2019-08-03 16:00:00 29.5 11 Sur 36 Sudeste 0 -- -- 29
2019-08-03 15:00:00 29.3 15 Sur 37 Sur 0 -- -- 29
2019-08-03 14:00:00 29 17 Sur 36 Sudeste 0 -- -- 30
2019-08-03 13:00:00 26.8 18 Sudeste 33 Este 0 -- -- 39
2019-08-03 12:00:00 25.4 18 Este 29 Este 0 -- -- 42
2019-08-03 11:00:00 23.9 15 Sudeste 24 Sudeste 0 -- -- 46
2019-08-03 10:00:00 22.5 15 Sudeste 24 Sudeste 0 -- -- 49
2019-08-03 09:00:00 20.8 13 Sudeste 20 Sur 0 -- -- 54
2019-08-03 08:00:00 19.5 14 Sur 22 Sur 0 -- -- 56
2019-08-03 07:00:00 18.2 16 Sur 22 Sur 0 -- -- 59
2019-08-03 06:00:00 18.4 14 Sur 23 Sur 0 -- -- 59
2019-08-03 05:00:00 18.5 15 Sur 22 Sur 0 -- -- 59
2019-08-03 04:00:00 18.9 12 Sur 18 Sur 0 -- -- 55
2019-08-03 03:00:00 19.1 12 Sur 19 Sur 0 -- -- 57
2019-08-03 02:00:00 19.1 12 Sur 20 Sur 0 -- -- 58
2019-08-03 01:00:00 19 11 Sur 24 Sur 0 -- -- 61
2019-08-03 00:00:00 18.4 12 Sur 21 Sur 0 -- -- 63
2019-08-02 23:00:00 18.1 11 Sudeste 15 Sudeste 0 -- -- 62
2019-08-02 22:00:00 22.9 6 Sudoeste 20 Sudoeste 0 -- -- 42
2019-08-02 21:00:00 25.3 8 Sur 24 Sur 0 -- -- 39
2019-08-02 20:00:00 27.9 6 Sur 23 Oeste 0 -- -- 27
2019-08-02 19:00:00 29.9 8 Sudoeste 26 Sudoeste 0 -- -- 19
2019-08-02 18:00:00 29.7 7 Este 41 Sudoeste 0 -- -- 21
2019-08-02 17:00:00 30.1 9 Sur 30 Sudoeste 0 -- -- 22
2019-08-02 16:00:00 29.6 10 Oeste 28 Noroeste 0 -- -- 23
2019-08-02 15:00:00 29 9 Sudoeste 29 Noroeste 0 -- -- 22
2019-08-02 14:00:00 28.2 10 Noroeste 35 Oeste 0 -- -- 24
2019-08-02 13:00:00 27.5 14 Oeste 32 Oeste 0 -- -- 25
2019-08-02 12:00:00 26 18 Oeste 36 Oeste 0 -- -- 27
2019-08-02 11:00:00 24.3 6 Sudeste 17 Este 0 -- -- 32
2019-08-02 10:00:00 21.9 9 Este 15 Este 0 -- -- 52
2019-08-02 09:00:00 18.8 3 Norte 10 Sudeste 0 -- -- 59
2019-08-02 08:00:00 18.2 6 Sudeste 9 Este 0 -- -- 69
2019-08-02 07:00:00 16.6 0 Calma 4 Oeste 0 -- -- 65
2019-08-02 06:00:00 16.8 0 Calma 5 Noroeste 0 -- -- 63
2019-08-02 05:00:00 16.8 0 Calma 6 Sudoeste 0 -- -- 63
2019-08-02 04:00:00 17 0 Calma 10 Este 0 -- -- 56
2019-08-02 03:00:00 18.3 4 Oeste 9 Oeste 0 -- -- 48
2019-08-02 02:00:00 18.9 4 Noroeste 10 Oeste 0 -- -- 46
2019-08-02 01:00:00 20.3 6 Este 15 Oeste 0 -- -- 40
2019-08-02 00:00:00 22.4 12 Oeste 17 Oeste 0 -- -- 35
2019-08-01 23:00:00 22.3 10 Sudoeste 13 Sudoeste 0 -- -- 35
2019-08-01 22:00:00 23.1 6 Sudoeste 13 Sudoeste 0 -- -- 34
2019-08-01 21:00:00 25.5 10 Oeste 21 Sudoeste 0 -- -- 31
2019-08-01 20:00:00 27.4 8 Sudoeste 27 Sudoeste 0 -- -- 29
2019-08-01 19:00:00 28 21 Oeste 37 Sudoeste 0 -- -- 27
2019-08-01 18:00:00 28.5 13 Sudoeste 33 Sudoeste 0 -- -- 29
2019-08-01 17:00:00 28.8 9 Sudoeste 36 Noroeste 0 -- -- 32
2019-08-01 16:00:00 28.3 10 Sudoeste 31 Sur 0 -- -- 33
2019-08-01 15:00:00 27.5 13 Sur 36 Sudeste 0 -- -- 37
2019-08-01 14:00:00 26.6 15 Sudoeste 32 Sudoeste 0 -- -- 39
2019-08-01 13:00:00 25.9 14 Sur 30 Sur 0 -- -- 42
2019-08-01 12:00:00 23.7 18 Sudeste 32 Sudeste 0 -- -- 48
2019-08-01 11:00:00 21.5 22 Sudeste 35 Sudeste 0 -- -- 52
2019-08-01 10:00:00 20 19 Sur 33 Sudeste 0 -- -- 53
2019-08-01 09:00:00 17.6 20 Sur 37 Sur 0 -- -- 58
2019-08-01 08:00:00 16 24 Sur 39 Sur 0 -- -- 56
2019-08-01 07:00:00 14.9 23 Sur 40 Sur 0 -- -- 64
2019-08-01 06:00:00 14.6 24 Sur 41 Sudeste 0 -- -- 72
2019-08-01 05:00:00 14.6 18 Sur 35 Sur 0 -- -- 69
2019-08-01 04:00:00 15.8 23 Sur 35 Sudeste 0 -- -- 60
2019-08-01 03:00:00 17 19 Sur 31 Sur 0 -- -- 54
2019-08-01 02:00:00 15 17 Sur 28 Sur 0 -- -- 75
2019-08-01 01:00:00 14.9 19 Sudeste 33 Sudeste 0 -- -- 93
2019-08-01 00:00:00 15.5 13 Sudeste 26 Sur 0 -- -- 90
2019-07-31 23:00:00 16.3 5 Sudeste 22 Sudeste 0 -- -- 84
2019-07-31 22:00:00 16.4 10 Sur 17 Sudeste 0 -- -- 85
2019-07-31 21:00:00 17.4 8 Sudeste 29 Sur 0 -- -- 81
2019-07-31 20:00:00 18.6 18 Sudeste 30 Sudeste 0 -- -- 76
2019-07-31 19:00:00 18.2 17 Sudeste 36 Sudeste 0 -- -- 76
2019-07-31 18:00:00 19.2 21 Sudeste 39 Sudeste 0 -- -- 75
2019-07-31 17:00:00 21.2 22 Sudeste 47 Este 0 -- -- 65
2019-07-31 16:00:00 22.2 24 Sudeste 49 Sudeste 0 -- -- 57
2019-07-31 15:00:00 22.8 23 Sudeste 43 Sudeste 0 -- -- 51
2019-07-31 14:00:00 21.9 29 Sudeste 46 Este 0 -- -- 53
2019-07-31 13:00:00 21.4 24 Sudeste 46 Sudeste 0 -- -- 54
2019-07-31 12:00:00 20.4 24 Sudeste 39 Sudeste 0 -- -- 55
2019-07-31 11:00:00 18.2 26 Sudeste 41 Sudeste 0 -- -- 68
2019-07-31 10:00:00 18.6 16 Sudeste 26 Sudeste 0 -- -- 70
2019-07-31 09:00:00 16.9 15 Sudeste 27 Sudeste 0 -- -- 78
2019-07-31 08:00:00 15.2 18 Sudeste 27 Sudeste 0 -- -- 82
2019-07-31 07:00:00 13.6 14 Sudeste 23 Sudeste 0 -- -- 78
2019-07-31 06:00:00 13.1 8 Sudeste 13 Sudeste 0 -- -- 78
2019-07-31 05:00:00 13.2 2 Oeste 4 Norte 0 -- -- 75
2019-07-31 04:00:00 13.8 0 Calma 4 Oeste 0 -- -- 74
2019-07-31 03:00:00 14 0 Calma 9 Oeste 0 -- -- 69
2019-07-31 02:00:00 14.2 9 Oeste 10 Oeste 0 -- -- 62
2019-07-31 01:00:00 15.5 6 Noroeste 13 Norte 0 -- -- 56
2019-07-31 00:00:00 16.5 8 Noroeste 14 Noroeste 0 -- -- 53
2019-07-30 23:00:00 17.8 8 Noroeste 17 Norte 0 -- -- 52
2019-07-30 22:00:00 18.2 8 Sudeste 27 Noroeste 0 -- -- 82
2019-07-30 21:00:00 21.3 19 Noroeste 32 Noroeste 0 -- -- 53
2019-07-30 20:00:00 24.2 14 Nordeste 25 Nordeste 0 -- -- 38
2019-07-30 19:00:00 27.1 5 Sur 42 Sudoeste 0 -- -- 36
2019-07-30 18:00:00 27.8 10 Sudoeste 27 Sudoeste 0 -- -- 21
2019-07-30 17:00:00 27.7 13 Sur 31 Sur 0 -- -- 21
2019-07-30 16:00:00 27.2 13 Sur 30 Sudoeste 0 -- -- 23
2019-07-30 15:00:00 26.3 11 Sur 31 Oeste 0 -- -- 26
2019-07-30 14:00:00 24.1 13 Sudeste 35 Sudeste 0 -- -- 36
2019-07-30 13:00:00 22.1 11 Nordeste 20 Este 0 -- -- 39
2019-07-30 12:00:00 20.8 12 Norte 31 Norte 0 -- -- 43
2019-07-30 11:00:00 20 6 Norte 14 Norte 0 -- -- 39
2019-07-30 10:00:00 18.5 5 Norte 12 Norte 0 -- -- 39
2019-07-30 09:00:00 16.9 5 Noroeste 13 Noroeste 0 -- -- 41
2019-07-30 08:00:00 15.7 10 Noroeste 18 Oeste 0 -- -- 43
2019-07-30 07:00:00 14.7 12 Oeste 21 Oeste 0 -- -- 41
2019-07-30 06:00:00 15.2 13 Oeste 22 Oeste 0 -- -- 38
2019-07-30 05:00:00 15.8 8 Oeste 14 Oeste 0 -- -- 39
2019-07-30 04:00:00 16.3 11 Oeste 14 Oeste 0 -- -- 43
2019-07-30 03:00:00 17.7 4 Oeste 18 Oeste 0 -- -- 43
2019-07-30 02:00:00 19.6 14 Oeste 23 Oeste 0 -- -- 35
2019-07-30 01:00:00 20.3 16 Oeste 26 Oeste 0 -- -- 30
2019-07-30 00:00:00 21.2 15 Oeste 25 Oeste 0 -- -- 26
2019-07-29 23:00:00 22 15 Oeste 24 Oeste 0 -- -- 31
2019-07-29 22:00:00 22.3 5 Sudoeste 14 Sudoeste 0 -- -- 35
2019-07-29 21:00:00 24.1 7 Sudoeste 26 Sudoeste 0 -- -- 33
2019-07-29 20:00:00 25.5 13 Sudoeste 31 Sudoeste 0 -- -- 30
2019-07-29 19:00:00 26.9 16 Oeste 35 Oeste 0 -- -- 27
2019-07-29 18:00:00 27 12 Sudoeste 35 Sudoeste 0 -- -- 30
2019-07-29 17:00:00 26.9 15 Sudoeste 36 Sudoeste 0 -- -- 30
2019-07-29 16:00:00 27.4 8 Sur 30 Sur 0 -- -- 31
2019-07-29 15:00:00 26 11 Sur 36 Oeste 0 -- -- 34
2019-07-29 14:00:00 26.1 11 Sur 31 Este 0 -- -- 33
2019-07-29 13:00:00 25.1 9 Sur 41 Sur 0 -- -- 35
2019-07-29 12:00:00 24.5 12 Sur 36 Sudeste 0 -- -- 35
2019-07-29 11:00:00 22.5 13 Oeste 25 Oeste 0 -- -- 38
2019-07-29 10:00:00 21.4 10 Sudoeste 21 Oeste 0 -- -- 39
2019-07-29 09:00:00 20.1 10 Sudoeste 20 Sudoeste 0 -- -- 39
2019-07-29 08:00:00 18.4 7 Sudoeste 16 Sudoeste 0 -- -- 43
2019-07-29 07:00:00 16.9 13 Sudoeste 19 Sudoeste 0 -- -- 45
2019-07-29 06:00:00 16.1 10 Sudoeste 20 Sudoeste 0 -- -- 54
2019-07-29 05:00:00 16 7 Sudoeste 18 Sudoeste 0 -- -- 47
2019-07-29 04:00:00 14.5 4 Sur 16 Sudeste 0 -- -- 49
2019-07-29 03:00:00 15.7 6 Sur 16 Sudeste 0 -- -- 45
2019-07-29 02:00:00 16.5 5 Sudoeste 9 Sudeste 0 -- -- 39
2019-07-29 01:00:00 16.5 8 Sudeste 14 Oeste 0 -- -- 40
2019-07-29 00:00:00 18.4 8 Oeste 14 Oeste 0 -- -- 34
2019-07-28 23:00:00 18.2 6 Oeste 15 Oeste 0 -- -- 32
2019-07-28 22:00:00 19.2 6 Oeste 15 Oeste 0 -- -- 30
2019-07-28 21:00:00 22.7 8 Oeste 17 Oeste 0 -- -- 25
2019-07-28 20:00:00 24.5 7 Noroeste 26 Norte 0 -- -- 30
2019-07-28 19:00:00 24.6 12 Norte 20 Nordeste 0 -- -- 29
2019-07-28 18:00:00 24.6 5 Este 27 Este 0 -- -- 28
2019-07-28 17:00:00 23.8 14 Este 31 Este 0 -- -- 32
2019-07-28 16:00:00 23.2 18 Sudeste 31 Este 0 -- -- 34
2019-07-28 15:00:00 22.1 12 Este 22 Este 0 -- -- 38
2019-07-28 14:00:00 20.5 10 Nordeste 26 Nordeste 0 -- -- 42
2019-07-28 13:00:00 19.4 11 Norte 24 Norte 0 -- -- 44
2019-07-28 12:00:00 17.4 11 Noroeste 24 Noroeste 0 -- -- 47
2019-07-28 11:00:00 15.4 12 Norte 21 Noroeste 0 -- -- 55
2019-07-28 10:00:00 13.1 14 Noroeste 28 Noroeste 0 -- -- 63
2019-07-28 09:00:00 10.7 19 Noroeste 31 Noroeste 0 -- -- 75
2019-07-28 08:00:00 8.7 16 Noroeste 26 Noroeste 0 -- -- 87
2019-07-28 07:00:00 8.1 19 Noroeste 24 Noroeste 0 -- -- 87
2019-07-28 06:00:00 8 12 Oeste 17 Oeste 0 -- -- 86
2019-07-28 05:00:00 9 8 Noroeste 22 Oeste 0 -- -- 80
2019-07-28 04:00:00 9.6 14 Oeste 22 Oeste 0 -- -- 82
2019-07-28 03:00:00 10.2 10 Noroeste 24 Noroeste 0 -- -- 81
2019-07-28 02:00:00 11.2 15 Noroeste 31 Noroeste 0 -- -- 80
2019-07-28 01:00:00 11.9 23 Noroeste 31 Noroeste 0 -- -- 81
2019-07-28 00:00:00 12.5 25 Noroeste 32 Noroeste 0 -- -- 80
2019-07-27 23:00:00 13.6 14 Noroeste 19 Noroeste 0 -- -- 77
2019-07-26 12:00:00 -- -- -- -- -- -- -- -- --
2019-07-26 11:00:00 22.9 5 Nordeste 13 Este 0 -- -- 41
2019-07-26 10:00:00 19.3 6 Oeste 30 Sudoeste 0 -- -- 48
2019-07-26 09:00:00 19.2 5 Este 22 Noroeste 0 -- -- 49
2019-07-26 08:00:00 18.7 4 Noroeste 27 Sur 0 -- -- 48
2019-07-26 07:00:00 18.3 14 Sur 24 Sur 0 -- -- 47
2019-07-26 06:00:00 17.7 13 Sur 21 Sur 0 -- -- 50
2019-07-26 05:00:00 17.7 12 Sur 22 Sur 0 -- -- 52
2019-07-26 04:00:00 17.7 11 Sur 21 Sur 0 -- -- 55
2019-07-26 03:00:00 17.9 12 Sur 23 Sudeste 0 -- -- 56
2019-07-26 02:00:00 19 18 Sur 33 Sur 0 -- -- 52
2019-07-26 01:00:00 19.7 19 Sur 31 Sudeste 0 -- -- 47
2019-07-26 00:00:00 20.2 18 Sur 34 Sur 0 -- -- 46
2019-07-25 23:00:00 20.9 18 Sur 30 Sur 0 -- -- 46
2019-07-25 22:00:00 21.4 15 Sudeste 29 Sudeste 0 -- -- 51
2019-07-25 21:00:00 23.2 18 Sudeste 42 Sudeste 0 -- -- 49
2019-07-25 20:00:00 25.8 22 Sudeste 41 Este 0 -- -- 40
2019-07-25 19:00:00 27.6 27 Sudeste 45 Sudeste 0 -- -- 35
2019-07-25 18:00:00 30.6 14 Sur 40 Este 0 -- -- 23
2019-07-25 17:00:00 30.6 13 Sudeste 42 Sudeste 0 -- -- 24
2019-07-25 16:00:00 29.8 17 Sudeste 36 Sur 0 -- -- 28
2019-07-25 15:00:00 30.1 17 Sudeste 36 Sudeste 0 -- -- 28
2019-07-25 14:00:00 29.6 15 Sur 30 Sudeste 0 -- -- 31
2019-07-25 13:00:00 28.6 13 Sur 35 Sur 0 -- -- 32
2019-07-25 12:00:00 27.8 14 Sur 29 Sudeste 0 -- -- 35
2019-07-25 11:00:00 26 16 Sudeste 27 Este 0 -- -- 35
2019-07-25 10:00:00 24.5 17 Sudeste 28 Sur 0 -- -- 36
2019-07-25 09:00:00 22.5 13 Sur 31 Sur 0 -- -- 37
2019-07-25 08:00:00 20.8 14 Sur 25 Sudoeste 0 -- -- 38
2019-07-25 07:00:00 20 12 Sur 25 Sur 0 -- -- 39
2019-07-25 06:00:00 21 14 Sur 23 Sudoeste 0 -- -- 34
2019-07-25 05:00:00 20.4 10 Sur 23 Sur 0 -- -- 34
2019-07-25 04:00:00 20.6 13 Sur 23 Sur 0 -- -- 38
2019-07-25 03:00:00 20.1 14 Sur 24 Sur 0 -- -- 43
2019-07-25 02:00:00 19.9 15 Sur 28 Sudeste 0 -- -- 41
2019-07-25 01:00:00 20.5 19 Sur 35 Sur 0 -- -- 40
2019-07-25 00:00:00 21.3 19 Sur 31 Sur 0 -- -- 38
2019-07-24 23:00:00 21.2 17 Sur 28 Sudeste 0 -- -- 40
2019-07-24 22:00:00 22.1 13 Sur 27 Sudeste 0 -- -- 40
2019-07-24 21:00:00 24.3 19 Sudeste 32 Sudeste 0 -- -- 36
2019-07-24 20:00:00 26.2 23 Sudeste 37 Sudeste 0 -- -- 32
2019-07-24 19:00:00 27.7 24 Sudeste 37 Este 0 -- -- 29
2019-07-24 18:00:00 28.7 23 Sudeste 41 Sudeste 0 -- -- 27
2019-07-24 17:00:00 29.6 23 Sudeste 39 Sudeste 0 -- -- 24
2019-07-24 16:00:00 30 18 Sudeste 45 Este 0 -- -- 24
2019-07-24 15:00:00 29.6 17 Sudeste 43 Sudeste 0 -- -- 24
2019-07-24 14:00:00 29.1 22 Sudeste 43 Sudeste 0 -- -- 27
2019-07-24 13:00:00 28.2 23 Sudeste 37 Sudeste 0 -- -- 28
2019-07-24 12:00:00 27.3 21 Sudeste 34 Sudeste 0 -- -- 30
2019-07-24 11:00:00 26.2 17 Sudeste 26 Sudeste 0 -- -- 32
2019-07-24 10:00:00 23.7 9 Sudeste 15 Sur 0 -- -- 39
2019-07-24 09:00:00 20.8 9 Sur 14 Sur 0 -- -- 51
2019-07-24 08:00:00 20.6 4 Sudeste 17 Sudoeste 0 -- -- 44
2019-07-24 07:00:00 19.7 3 Noroeste 11 Sur 0 -- -- 44
2019-07-24 06:00:00 20.4 8 Sudeste 9 Sur 0 -- -- 46
2019-07-24 05:00:00 21.2 5 Sudoeste 12 Sudoeste 0 -- -- 37
2019-07-24 04:00:00 20.5 2 Oeste 5 Sur 0 -- -- 44
2019-07-24 03:00:00 20.9 4 Sur 12 Sur 0 -- -- 43
2019-07-24 02:00:00 20.4 7 Sur 11 Sudeste 0 -- -- 46
2019-07-24 01:00:00 20.9 7 Sudeste 19 Sudeste 0 -- -- 43
2019-07-24 00:00:00 21.4 5 Sur 22 Sur 0 -- -- 42
2019-07-23 23:00:00 21.4 15 Sudeste 30 Sur 0 -- -- 44
2019-07-23 22:00:00 22.3 16 Sudeste 31 Sur 0 -- -- 38
2019-07-23 21:00:00 24.3 17 Sudeste 32 Este 0 -- -- 34
2019-07-23 20:00:00 26.6 22 Sudeste 42 Sudeste 0 -- -- 29
2019-07-23 19:00:00 27.9 22 Sudeste 44 Este 0 -- -- 28
2019-07-23 18:00:00 28.7 27 Sudeste 46 Sudeste 0 -- -- 26
2019-07-23 17:00:00 29.5 25 Sudeste 46 Sudeste 0 -- -- 23
2019-07-23 16:00:00 30.1 22 Sudeste 45 Sudeste 0 -- -- 22
2019-07-23 15:00:00 29.5 24 Sudeste 46 Sudeste 0 -- -- 23
2019-07-23 14:00:00 29.4 22 Sudeste 42 Este 0 -- -- 25
2019-07-23 13:00:00 28.4 21 Sudeste 38 Sudeste 0 -- -- 27
2019-07-23 12:00:00 27.4 22 Este 37 Sudeste 0 -- -- 27
2019-07-23 11:00:00 25.9 22 Sudeste 37 Sudeste 0 -- -- 30
2019-07-23 10:00:00 24.8 15 Este 39 Este 0 -- -- 32
2019-07-23 09:00:00 23.1 10 Sudeste 22 Sudeste 0 -- -- 32
2019-07-23 08:00:00 21.8 14 Sur 32 Sur 0 -- -- 32
2019-07-23 07:00:00 20.8 19 Sur 30 Sur 0 -- -- 33
2019-07-23 06:00:00 20.2 13 Sur 27 Sur 0 -- -- 35
2019-07-23 05:00:00 20.4 15 Sur 25 Sur 0 -- -- 32
2019-07-23 04:00:00 20.4 18 Sur 30 Sur 0 -- -- 32
2019-07-23 03:00:00 20.5 17 Sur 35 Sudeste 0 -- -- 31
2019-07-23 02:00:00 20.8 17 Sur 32 Sur 0 -- -- 31
2019-07-23 01:00:00 20.8 16 Sur 30 Sur 0 -- -- 29
2019-07-23 00:00:00 21.1 18 Sur 32 Sur 0 -- -- 25
2019-07-22 23:00:00 21.5 19 Sur 32 Sur 0 -- -- 28
2019-07-22 22:00:00 21.4 22 Sudeste 31 Sur 0 -- -- 33
2019-07-22 21:00:00 22.4 17 Sudeste 35 Sudeste 0 -- -- 37
2019-07-22 20:00:00 24.4 21 Sudeste 34 Sudeste 0 -- -- 34
2019-07-22 19:00:00 26.2 23 Sudeste 39 Sudeste 0 -- -- 30
2019-07-22 18:00:00 26.7 25 Sudeste 45 Sudeste 0 -- -- 27
2019-07-22 17:00:00 28.3 27 Sudeste 54 Sudeste 0 -- -- 23
2019-07-22 16:00:00 28.2 28 Sudeste 46 Sudeste 0 -- -- 24
2019-07-22 15:00:00 28.6 25 Este 44 Este 0 -- -- 23
2019-07-22 14:00:00 28 26 Sudeste 46 Sudeste 0 -- -- 23
2019-07-22 13:00:00 27.1 22 Sudeste 41 Este 0 -- -- 23
2019-07-22 12:00:00 25 23 Sudeste 36 Sudeste 0 -- -- 21
2019-07-22 11:00:00 25.1 19 Sudeste 31 Sudeste 0 -- -- 17
2019-07-22 10:00:00 24.2 16 Sudeste 26 Sudeste 0 -- -- 19
2019-07-22 09:00:00 22.9 10 Sudeste 24 Sudeste 0 -- -- 23
2019-07-22 08:00:00 21.1 12 Sur 21 Sur 0 -- -- 25
2019-07-22 07:00:00 20.4 10 Sur 23 Sudeste 0 -- -- 24
2019-07-22 06:00:00 20.2 13 Sur 26 Sur 0 -- -- 21
2019-07-22 05:00:00 20.5 15 Sur 25 Sudeste 0 -- -- 22
2019-07-22 04:00:00 20.6 15 Sur 31 Sudeste 0 -- -- 23
2019-07-22 03:00:00 19.6 15 Sur 27 Sudeste 0 -- -- 27
2019-07-22 02:00:00 19.9 19 Sur 31 Sudeste 0 -- -- 30
2019-07-22 01:00:00 20 21 Sudeste 30 Sudeste 0 -- -- 29
2019-07-22 00:00:00 20.2 17 Sur 31 Sur 0 -- -- 36
2019-07-21 23:00:00 20.1 15 Sur 30 Sur 0 -- -- 51
2019-07-21 22:00:00 20.8 15 Sur 24 Sudeste 0 -- -- 49
2019-07-21 21:00:00 22.3 16 Sur 27 Sudeste 0 -- -- 41
2019-07-21 20:00:00 23.8 22 Sudeste 36 Sudeste 0 -- -- 40
2019-07-21 19:00:00 25.5 22 Sudeste 37 Sudeste 0 -- -- 34
2019-07-21 18:00:00 26.6 21 Sudeste 36 Sudeste 0 -- -- 34
2019-07-21 17:00:00 27.3 23 Sudeste 37 Sudeste 0 -- -- 33
2019-07-21 16:00:00 27.6 20 Sudeste 33 Sudeste 0 -- -- 36
2019-07-21 15:00:00 27.6 23 Sudeste 39 Sudeste 0 -- -- 34
2019-07-21 14:00:00 27.4 22 Sudeste 40 Sudeste 0 -- -- 30
2019-07-21 13:00:00 26.7 26 Sudeste 45 Sudeste 0 -- -- 32
2019-07-21 12:00:00 26.3 24 Sudeste 38 Sudeste 0 -- -- 35
2019-07-21 11:00:00 24.8 20 Sudeste 31 Sudeste 0 -- -- 38
2019-07-21 10:00:00 22.7 17 Sudeste 34 Sudeste 0 -- -- 44
2019-07-21 09:00:00 21.1 18 Sudeste 28 Sudeste 0 -- -- 48
2019-07-21 08:00:00 19.7 16 Sudeste 28 Sur 0 -- -- 53
2019-07-21 07:00:00 19.8 16 Sur 29 Sudeste 0 -- -- 47
2019-07-21 06:00:00 19.7 16 Sur 30 Sur 0 -- -- 47
2019-07-21 05:00:00 19.2 17 Sur 29 Sur 0 -- -- 51
2019-07-21 04:00:00 18.4 16 Sur 33 Sur 0 -- -- 53
2019-07-21 03:00:00 18.4 20 Sur 33 Sur 0 -- -- 51
2019-07-21 02:00:00 18 21 Sur 35 Sur 0 -- -- 52
2019-07-21 01:00:00 18.5 24 Sur 37 Sur 0 -- -- 50
2019-07-21 00:00:00 19 21 Sur 40 Sur 0 -- -- 49
2019-07-20 23:00:00 19.6 24 Sur 35 Sudeste 0 -- -- 47
2019-07-20 22:00:00 20.5 22 Sur 31 Sur 0 -- -- 51
2019-07-20 21:00:00 22.2 21 Sudeste 33 Sudeste 0 -- -- 50
2019-07-20 20:00:00 24.9 18 Sudeste 36 Sudeste 0 -- -- 42
2019-07-20 19:00:00 26.8 22 Sudeste 40 Sudeste 0 -- -- 38
2019-07-20 18:00:00 28.6 23 Sudeste 42 Sudeste 0 -- -- 34
2019-07-20 17:00:00 29.3 26 Sudeste 41 Sudeste 0 -- -- 30
2019-07-20 16:00:00 30.6 16 Sur 37 Sudeste 0 -- -- 24
2019-07-20 15:00:00 30 19 Sudeste 37 Sudeste 0 -- -- 25
2019-07-20 14:00:00 29.6 14 Sudeste 35 Sudeste 0 -- -- 24
2019-07-20 13:00:00 28.3 14 Sudeste 30 Sur 0 -- -- 26
2019-07-20 12:00:00 26.5 16 Sur 37 Sudeste 0 -- -- 28
2019-07-20 11:00:00 24.3 19 Sur 33 Sur 0 -- -- 34
2019-07-20 10:00:00 22.6 19 Sur 35 Sur 0 -- -- 41
2019-07-20 09:00:00 21.3 17 Sur 34 Sur 0 -- -- 45
2019-07-20 08:00:00 19.8 18 Sur 33 Sur 0 -- -- 50
2019-07-20 07:00:00 18.5 16 Sur 33 Sur 0 -- -- 53
2019-07-20 06:00:00 17.9 21 Sur 30 Sur 0 -- -- 56
2019-07-20 05:00:00 18.1 15 Sur 28 Sur 0 -- -- 57
2019-07-20 04:00:00 19.2 19 Sur 35 Sur 0 -- -- 59
2019-07-20 03:00:00 19.4 16 Sur 28 Sudoeste 0 -- -- 58
2019-07-20 02:00:00 18.8 15 Sur 30 Sur 0 -- -- 61
2019-07-20 01:00:00 19.7 17 Sur 28 Sur 0 -- -- 59
2019-07-20 00:00:00 16.9 15 Sudeste 21 Sudeste 0 -- -- 71
2019-07-19 23:00:00 18 14 Sur 23 Sudeste 0 -- -- 67
2019-07-19 22:00:00 20.4 13 Sur 19 Sudeste 0 -- -- 62
2019-07-19 21:00:00 23.6 11 Sur 31 Sudeste 0 -- -- 51
2019-07-19 20:00:00 25.1 16 Sudeste 42 Sudeste 0 -- -- 48
2019-07-19 19:00:00 26.1 22 Sudeste 40 Sudeste 0 -- -- 42
2019-07-19 18:00:00 28.2 7 Sur 28 Sur 0 -- -- 29
2019-07-19 17:00:00 28.6 12 Sur 32 Sudeste 0 -- -- 26
2019-07-19 16:00:00 28.5 14 Sudeste 35 Sur 0 -- -- 28
2019-07-19 15:00:00 27.9 15 Sur 35 Sur 0 -- -- 30
2019-07-19 14:00:00 27.6 16 Sudeste 36 Sudeste 0 -- -- 32
2019-07-19 13:00:00 26.8 20 Sudeste 37 Sudeste 0 -- -- 35
2019-07-19 12:00:00 25.4 17 Sudeste 28 Sudeste 0 -- -- 41
2019-07-19 11:00:00 23.8 14 Sudeste 30 Sudeste 0 -- -- 47
2019-07-19 10:00:00 21.7 18 Sudeste 28 Sudeste 0 -- -- 53
2019-07-19 09:00:00 20.3 17 Sudeste 27 Sudeste 0 -- -- 61
2019-07-19 08:00:00 18.6 13 Sur 28 Sudeste 0 -- -- 61
2019-07-19 07:00:00 17.8 16 Sur 26 Sur 0 -- -- 71
2019-07-19 06:00:00 17.5 12 Sur 21 Sur 0 -- -- 68
2019-07-19 05:00:00 16.3 3 Sudeste 10 Sudeste 0 -- -- 79
2019-07-19 04:00:00 16.7 2 Sudeste 6 Sudeste 0 -- -- 78
2019-07-19 03:00:00 17.6 3 Sudeste 12 Sur 0 -- -- 75
2019-07-19 02:00:00 17.9 6 Sur 8 Sudeste 0 -- -- 74
2019-07-19 01:00:00 18.3 3 Sudeste 14 Sur 0 -- -- 72
2019-07-19 00:00:00 18.2 5 Sudeste 23 Sur 0 -- -- 71